sensor_id;sensor_type;location;lat;lon;timestamp;pressure;altitude;pressure_sealevel;temperature;humidity
79366;BME280;68833;53.160;17.920;2023-08-30T00:01:32;99686.26;;;17.59;81.40
79366;BME280;68833;53.160;17.920;2023-08-30T00:03:59;99683.43;;;17.58;81.03
79366;BME280;68833;53.160;17.920;2023-08-30T00:06:26;99676.17;;;17.58;81.23
79366;BME280;68833;53.160;17.920;2023-08-30T00:08:53;99671.75;;;17.58;81.24
79366;BME280;68833;53.160;17.920;2023-08-30T00:11:20;99666.07;;;17.58;81.02
79366;BME280;68833;53.160;17.920;2023-08-30T00:13:47;99663.03;;;17.58;81.14
79366;BME280;68833;53.160;17.920;2023-08-30T00:16:14;99660.89;;;17.58;81.16
79366;BME280;68833;53.160;17.920;2023-08-30T00:18:43;99654.96;;;17.59;81.05
79366;BME280;68833;53.160;17.920;2023-08-30T00:21:11;99655.98;;;17.61;81.00
79366;BME280;68833;53.160;17.920;2023-08-30T00:23:38;99659.64;;;17.61;81.02
79366;BME280;68833;53.160;17.920;2023-08-30T00:26:05;99657.89;;;17.61;80.99
79366;BME280;68833;53.160;17.920;2023-08-30T00:28:32;99661.52;;;17.60;81.21
79366;BME280;68833;53.160;17.920;2023-08-30T00:31:00;99672.15;;;17.60;81.05
79366;BME280;68833;53.160;17.920;2023-08-30T00:33:27;99673.75;;;17.60;81.37
79366;BME280;68833;53.160;17.920;2023-08-30T00:35:58;99672.14;;;17.60;81.00
79366;BME280;68833;53.160;17.920;2023-08-30T00:38:27;99666.02;;;17.59;81.01
79366;BME280;68833;53.160;17.920;2023-08-30T00:40:55;99659.59;;;17.59;80.95
79366;BME280;68833;53.160;17.920;2023-08-30T00:43:22;99665.19;;;17.57;81.16
79366;BME280;68833;53.160;17.920;2023-08-30T00:45:50;99668.39;;;17.57;80.79
79366;BME280;68833;53.160;17.920;2023-08-30T00:48:18;99671.73;;;17.58;81.19
79366;BME280;68833;53.160;17.920;2023-08-30T00:50:46;99672.28;;;17.58;81.11
79366;BME280;68833;53.160;17.920;2023-08-30T00:53:13;99670.21;;;17.57;81.29
79366;BME280;68833;53.160;17.920;2023-08-30T00:55:42;99669.50;;;17.56;81.01
79366;BME280;68833;53.160;17.920;2023-08-30T00:58:10;99670.36;;;17.54;81.22
79366;BME280;68833;53.160;17.920;2023-08-30T01:00:38;99664.92;;;17.52;81.36
79366;BME280;68833;53.160;17.920;2023-08-30T01:03:06;99662.33;;;17.51;81.14
79366;BME280;68833;53.160;17.920;2023-08-30T01:05:34;99661.77;;;17.51;81.24
79366;BME280;68833;53.160;17.920;2023-08-30T01:08:01;99663.21;;;17.51;81.52
79366;BME280;68833;53.160;17.920;2023-08-30T01:10:41;99660.61;;;17.50;81.58
79366;BME280;68833;53.160;17.920;2023-08-30T01:13:16;99656.41;;;17.49;81.16
79366;BME280;68833;53.160;17.920;2023-08-30T01:15:46;99660.52;;;17.48;81.24
79366;BME280;68833;53.160;17.920;2023-08-30T01:18:19;99660.74;;;17.48;81.47
79366;BME280;68833;53.160;17.920;2023-08-30T01:20:48;99658.90;;;17.46;81.25
79366;BME280;68833;53.160;17.920;2023-08-30T01:23:40;99658.22;;;17.45;81.16
79366;BME280;68833;53.160;17.920;2023-08-30T01:26:45;99649.81;;;17.43;81.23
79366;BME280;68833;53.160;17.920;2023-08-30T01:29:18;99640.71;;;17.41;81.15
79366;BME280;68833;53.160;17.920;2023-08-30T01:31:47;99645.20;;;17.40;81.55
79366;BME280;68833;53.160;17.920;2023-08-30T01:34:15;99647.83;;;17.41;81.38
79366;BME280;68833;53.160;17.920;2023-08-30T01:36:43;99649.58;;;17.41;81.37
79366;BME280;68833;53.160;17.920;2023-08-30T01:39:12;99653.85;;;17.41;81.25
79366;BME280;68833;53.160;17.920;2023-08-30T02:12:49;99664.54;;;17.33;81.16
79366;BME280;68833;53.160;17.920;2023-08-30T02:15:20;99668.05;;;17.34;81.15
79366;BME280;68833;53.160;17.920;2023-08-30T02:17:48;99666.55;;;17.32;80.99
79366;BME280;68833;53.160;17.920;2023-08-30T02:20:17;99670.66;;;17.31;81.46
79366;BME280;68833;53.160;17.920;2023-08-30T02:22:44;99667.56;;;17.33;81.22
79366;BME280;68833;53.160;17.920;2023-08-30T02:25:11;99666.16;;;17.33;81.15
79366;BME280;68833;53.160;17.920;2023-08-30T02:27:38;99667.37;;;17.33;80.96
79366;BME280;68833;53.160;17.920;2023-08-30T02:30:05;99668.48;;;17.32;80.97
79366;BME280;68833;53.160;17.920;2023-08-30T02:32:32;99665.21;;;17.30;81.12
79366;BME280;68833;53.160;17.920;2023-08-30T02:34:59;99668.98;;;17.30;80.90
79366;BME280;68833;53.160;17.920;2023-08-30T02:37:26;99666.09;;;17.31;81.26
79366;BME280;68833;53.160;17.920;2023-08-30T02:39:53;99669.12;;;17.31;81.23
79366;BME280;68833;53.160;17.920;2023-08-30T02:42:20;99662.47;;;17.29;80.92
79366;BME280;68833;53.160;17.920;2023-08-30T02:44:47;99660.59;;;17.27;80.91
79366;BME280;68833;53.160;17.920;2023-08-30T02:47:14;99656.75;;;17.26;81.36
79366;BME280;68833;53.160;17.920;2023-08-30T02:49:41;99647.36;;;17.26;81.11
79366;BME280;68833;53.160;17.920;2023-08-30T02:52:09;99646.48;;;17.26;80.99
79366;BME280;68833;53.160;17.920;2023-08-30T02:54:36;99651.43;;;17.26;80.79
79366;BME280;68833;53.160;17.920;2023-08-30T02:57:02;99652.90;;;17.25;81.01
79366;BME280;68833;53.160;17.920;2023-08-30T02:59:30;99639.27;;;17.24;80.94
79366;BME280;68833;53.160;17.920;2023-08-30T03:02:01;99637.57;;;17.23;81.34
79366;BME280;68833;53.160;17.920;2023-08-30T03:04:29;99640.63;;;17.22;80.96
79366;BME280;68833;53.160;17.920;2023-08-30T03:06:56;99634.87;;;17.20;80.78
79366;BME280;68833;53.160;17.920;2023-08-30T03:09:23;99632.27;;;17.19;81.24
79366;BME280;68833;53.160;17.920;2023-08-30T03:11:50;99635.14;;;17.19;80.96
79366;BME280;68833;53.160;17.920;2023-08-30T03:14:17;99634.33;;;17.17;81.31
79366;BME280;68833;53.160;17.920;2023-08-30T03:16:44;99622.66;;;17.16;81.17
79366;BME280;68833;53.160;17.920;2023-08-30T03:19:13;99615.44;;;17.16;81.15
79366;BME280;68833;53.160;17.920;2023-08-30T03:21:41;99619.31;;;17.16;80.97
79366;BME280;68833;53.160;17.920;2023-08-30T03:24:08;99620.76;;;17.15;81.07
79366;BME280;68833;53.160;17.920;2023-08-30T03:26:36;99619.35;;;17.12;81.13
79366;BME280;68833;53.160;17.920;2023-08-30T03:29:03;99621.26;;;17.09;81.07
79366;BME280;68833;53.160;17.920;2023-08-30T03:31:30;99622.61;;;17.04;81.08
79366;BME280;68833;53.160;17.920;2023-08-30T03:33:57;99628.96;;;17.05;81.08
79366;BME280;68833;53.160;17.920;2023-08-30T03:36:23;99631.30;;;17.03;80.94
79366;BME280;68833;53.160;17.920;2023-08-30T03:38:50;99638.60;;;17.03;81.35
79366;BME280;68833;53.160;17.920;2023-08-30T03:41:18;99633.59;;;17.01;81.39
79366;BME280;68833;53.160;17.920;2023-08-30T03:43:45;99632.88;;;16.97;81.36
79366;BME280;68833;53.160;17.920;2023-08-30T03:46:12;99631.89;;;16.96;81.46
79366;BME280;68833;53.160;17.920;2023-08-30T03:48:39;99632.12;;;16.95;81.31
79366;BME280;68833;53.160;17.920;2023-08-30T03:51:05;99634.11;;;16.94;81.38
79366;BME280;68833;53.160;17.920;2023-08-30T03:53:33;99636.60;;;16.94;81.42
79366;BME280;68833;53.160;17.920;2023-08-30T03:56:00;99639.27;;;16.94;81.24
79366;BME280;68833;53.160;17.920;2023-08-30T03:58:27;99632.33;;;16.91;81.26
79366;BME280;68833;53.160;17.920;2023-08-30T04:00:54;99627.48;;;16.88;81.54
79366;BME280;68833;53.160;17.920;2023-08-30T04:03:21;99627.52;;;16.88;81.42
79366;BME280;68833;53.160;17.920;2023-08-30T04:05:48;99626.61;;;16.88;81.75
79366;BME280;68833;53.160;17.920;2023-08-30T04:08:21;99620.73;;;16.88;81.52
79366;BME280;68833;53.160;17.920;2023-08-30T04:10:52;99617.94;;;16.88;81.54
79366;BME280;68833;53.160;17.920;2023-08-30T04:13:20;99620.59;;;16.88;81.61
79366;BME280;68833;53.160;17.920;2023-08-30T04:15:47;99624.98;;;16.89;81.80
79366;BME280;68833;53.160;17.920;2023-08-30T04:18:14;99632.52;;;16.87;81.41
79366;BME280;68833;53.160;17.920;2023-08-30T04:20:45;99643.20;;;16.86;81.34
79366;BME280;68833;53.160;17.920;2023-08-30T04:23:13;99647.27;;;16.86;81.46
79366;BME280;68833;53.160;17.920;2023-08-30T04:25:41;99645.65;;;16.86;81.63
79366;BME280;68833;53.160;17.920;2023-08-30T04:28:09;99640.48;;;16.87;81.52
79366;BME280;68833;53.160;17.920;2023-08-30T04:30:39;99638.73;;;16.86;81.87
79366;BME280;68833;53.160;17.920;2023-08-30T04:33:06;99632.33;;;16.84;81.49
79366;BME280;68833;53.160;17.920;2023-08-30T04:35:34;99634.30;;;16.83;81.52
79366;BME280;68833;53.160;17.920;2023-08-30T04:38:02;99641.56;;;16.83;81.68
79366;BME280;68833;53.160;17.920;2023-08-30T04:40:30;99639.25;;;16.84;81.64
79366;BME280;68833;53.160;17.920;2023-08-30T04:42:58;99630.36;;;16.84;81.83
79366;BME280;68833;53.160;17.920;2023-08-30T04:45:25;99632.11;;;16.81;81.66
79366;BME280;68833;53.160;17.920;2023-08-30T04:47:52;99627.64;;;16.78;81.73
79366;BME280;68833;53.160;17.920;2023-08-30T04:50:19;99639.82;;;16.76;81.82
79366;BME280;68833;53.160;17.920;2023-08-30T04:52:47;99643.02;;;16.75;81.96
79366;BME280;68833;53.160;17.920;2023-08-30T04:55:14;99646.08;;;16.75;81.79
79366;BME280;68833;53.160;17.920;2023-08-30T04:57:41;99648.77;;;16.74;81.92
79366;BME280;68833;53.160;17.920;2023-08-30T05:00:14;99651.31;;;16.73;81.48
79366;BME280;68833;53.160;17.920;2023-08-30T05:02:41;99650.13;;;16.72;81.67
79366;BME280;68833;53.160;17.920;2023-08-30T05:05:11;99645.58;;;16.71;81.47
79366;BME280;68833;53.160;17.920;2023-08-30T05:07:38;99645.14;;;16.69;81.51
79366;BME280;68833;53.160;17.920;2023-08-30T05:10:06;99642.48;;;16.68;81.59
79366;BME280;68833;53.160;17.920;2023-08-30T05:12:34;99639.62;;;16.69;81.75
79366;BME280;68833;53.160;17.920;2023-08-30T05:15:02;99635.23;;;16.68;81.69
79366;BME280;68833;53.160;17.920;2023-08-30T05:17:31;99633.64;;;16.68;81.97
79366;BME280;68833;53.160;17.920;2023-08-30T05:20:00;99638.23;;;16.68;81.94
79366;BME280;68833;53.160;17.920;2023-08-30T05:22:27;99643.67;;;16.70;81.73
79366;BME280;68833;53.160;17.920;2023-08-30T05:24:54;99651.83;;;16.70;82.32
79366;BME280;68833;53.160;17.920;2023-08-30T05:27:21;99653.87;;;16.72;81.50
79366;BME280;68833;53.160;17.920;2023-08-30T05:29:48;99652.79;;;16.72;82.40
79366;BME280;68833;53.160;17.920;2023-08-30T05:32:15;99650.57;;;16.74;82.26
79366;BME280;68833;53.160;17.920;2023-08-30T05:34:54;99645.23;;;16.74;81.96
79366;BME280;68833;53.160;17.920;2023-08-30T05:37:39;99645.31;;;16.76;82.05
79366;BME280;68833;53.160;17.920;2023-08-30T05:40:39;99645.34;;;16.75;81.80
79366;BME280;68833;53.160;17.920;2023-08-30T05:43:09;99649.05;;;16.76;82.01
79366;BME280;68833;53.160;17.920;2023-08-30T05:45:36;99648.81;;;16.77;81.90
79366;BME280;68833;53.160;17.920;2023-08-30T05:48:04;99651.27;;;16.77;82.17
79366;BME280;68833;53.160;17.920;2023-08-30T05:50:31;99655.66;;;16.78;81.98
79366;BME280;68833;53.160;17.920;2023-08-30T05:52:58;99658.14;;;16.78;81.87
79366;BME280;68833;53.160;17.920;2023-08-30T05:55:25;99666.08;;;16.79;81.94
79366;BME280;68833;53.160;17.920;2023-08-30T05:57:52;99662.11;;;16.80;81.83
79366;BME280;68833;53.160;17.920;2023-08-30T06:00:19;99661.67;;;16.82;82.05
79366;BME280;68833;53.160;17.920;2023-08-30T06:02:46;99658.77;;;16.83;82.04
79366;BME280;68833;53.160;17.920;2023-08-30T06:05:13;99661.21;;;16.84;81.94
79366;BME280;68833;53.160;17.920;2023-08-30T06:07:40;99659.64;;;16.84;81.92
79366;BME280;68833;53.160;17.920;2023-08-30T06:10:07;99662.63;;;16.84;81.83
79366;BME280;68833;53.160;17.920;2023-08-30T06:12:34;99669.73;;;16.84;81.94
79366;BME280;68833;53.160;17.920;2023-08-30T06:15:01;99669.88;;;16.84;82.11
79366;BME280;68833;53.160;17.920;2023-08-30T06:17:30;99670.20;;;16.85;81.85
79366;BME280;68833;53.160;17.920;2023-08-30T06:19:57;99671.89;;;16.87;82.12
79366;BME280;68833;53.160;17.920;2023-08-30T06:22:24;99679.63;;;16.89;82.37
79366;BME280;68833;53.160;17.920;2023-08-30T06:24:51;99683.45;;;16.90;82.26
79366;BME280;68833;53.160;17.920;2023-08-30T06:27:19;99680.40;;;16.91;82.06
79366;BME280;68833;53.160;17.920;2023-08-30T06:29:46;99679.64;;;16.92;81.93
79366;BME280;68833;53.160;17.920;2023-08-30T06:32:13;99675.93;;;16.92;82.08
79366;BME280;68833;53.160;17.920;2023-08-30T06:34:39;99673.20;;;16.93;82.07
79366;BME280;68833;53.160;17.920;2023-08-30T06:37:06;99675.86;;;16.93;82.03
79366;BME280;68833;53.160;17.920;2023-08-30T06:39:34;99676.63;;;16.92;82.42
79366;BME280;68833;53.160;17.920;2023-08-30T06:42:05;99677.86;;;16.92;82.01
79366;BME280;68833;53.160;17.920;2023-08-30T06:44:32;99676.51;;;16.94;82.29
79366;BME280;68833;53.160;17.920;2023-08-30T06:46:59;99674.63;;;16.96;82.06
79366;BME280;68833;53.160;17.920;2023-08-30T06:49:26;99671.86;;;16.98;82.34
79366;BME280;68833;53.160;17.920;2023-08-30T06:51:53;99668.88;;;16.98;81.75
79366;BME280;68833;53.160;17.920;2023-08-30T06:54:20;99667.91;;;16.96;82.10
79366;BME280;68833;53.160;17.920;2023-08-30T06:57:00;99666.77;;;16.94;82.31
79366;BME280;68833;53.160;17.920;2023-08-30T06:59:27;99668.67;;;16.95;82.26
79366;BME280;68833;53.160;17.920;2023-08-30T07:01:54;99671.94;;;16.97;82.28
79366;BME280;68833;53.160;17.920;2023-08-30T07:04:21;99664.58;;;16.98;82.47
79366;BME280;68833;53.160;17.920;2023-08-30T07:06:48;99663.09;;;16.99;82.25
79366;BME280;68833;53.160;17.920;2023-08-30T07:09:15;99657.52;;;17.01;82.21
79366;BME280;68833;53.160;17.920;2023-08-30T07:11:43;99662.80;;;17.02;82.19
79366;BME280;68833;53.160;17.920;2023-08-30T07:14:11;99668.27;;;17.02;82.26
79366;BME280;68833;53.160;17.920;2023-08-30T07:16:41;99675.52;;;17.03;82.16
79366;BME280;68833;53.160;17.920;2023-08-30T07:19:08;99679.20;;;17.04;82.34
79366;BME280;68833;53.160;17.920;2023-08-30T07:21:36;99685.63;;;17.07;82.12
79366;BME280;68833;53.160;17.920;2023-08-30T07:24:07;99684.85;;;17.08;82.54
79366;BME280;68833;53.160;17.920;2023-08-30T07:26:35;99689.58;;;17.09;82.19
79366;BME280;68833;53.160;17.920;2023-08-30T07:29:03;99690.35;;;17.08;82.26
79366;BME280;68833;53.160;17.920;2023-08-30T07:31:32;99694.38;;;17.09;82.30
79366;BME280;68833;53.160;17.920;2023-08-30T07:33:59;99698.84;;;17.12;82.26
79366;BME280;68833;53.160;17.920;2023-08-30T07:36:27;99696.96;;;17.17;82.53
79366;BME280;68833;53.160;17.920;2023-08-30T07:38:54;99691.98;;;17.21;81.57
79366;BME280;68833;53.160;17.920;2023-08-30T07:41:21;99695.75;;;17.24;82.20
79366;BME280;68833;53.160;17.920;2023-08-30T07:43:48;99692.09;;;17.26;82.10
79366;BME280;68833;53.160;17.920;2023-08-30T07:46:15;99685.64;;;17.27;81.78
79366;BME280;68833;53.160;17.920;2023-08-30T07:48:42;99686.19;;;17.30;82.22
79366;BME280;68833;53.160;17.920;2023-08-30T07:51:09;99684.40;;;17.33;81.78
79366;BME280;68833;53.160;17.920;2023-08-30T07:53:36;99688.71;;;17.36;81.62
79366;BME280;68833;53.160;17.920;2023-08-30T07:56:03;99688.80;;;17.38;81.40
79366;BME280;68833;53.160;17.920;2023-08-30T07:58:30;99690.85;;;17.39;81.90
79366;BME280;68833;53.160;17.920;2023-08-30T08:00:57;99694.54;;;17.40;81.72
79366;BME280;68833;53.160;17.920;2023-08-30T08:03:24;99696.37;;;17.42;81.72
79366;BME280;68833;53.160;17.920;2023-08-30T08:05:51;99699.95;;;17.42;81.97
79366;BME280;68833;53.160;17.920;2023-08-30T08:08:18;99696.60;;;17.42;81.67
79366;BME280;68833;53.160;17.920;2023-08-30T08:10:45;99695.91;;;17.41;81.55
79366;BME280;68833;53.160;17.920;2023-08-30T08:13:11;99696.14;;;17.40;81.52
79366;BME280;68833;53.160;17.920;2023-08-30T08:15:39;99700.76;;;17.40;81.36
79366;BME280;68833;53.160;17.920;2023-08-30T08:18:06;99700.84;;;17.41;81.58
79366;BME280;68833;53.160;17.920;2023-08-30T08:20:33;99699.30;;;17.44;81.39
79366;BME280;68833;53.160;17.920;2023-08-30T08:23:00;99703.12;;;17.46;81.52
79366;BME280;68833;53.160;17.920;2023-08-30T08:25:27;99701.17;;;17.45;81.34
79366;BME280;68833;53.160;17.920;2023-08-30T08:27:54;99703.16;;;17.48;81.63
79366;BME280;68833;53.160;17.920;2023-08-30T08:30:21;99705.56;;;17.50;81.52
79366;BME280;68833;53.160;17.920;2023-08-30T08:32:49;99707.20;;;17.52;81.66
79366;BME280;68833;53.160;17.920;2023-08-30T08:35:16;99707.59;;;17.55;81.66
79366;BME280;68833;53.160;17.920;2023-08-30T08:37:43;99710.02;;;17.59;81.68
79366;BME280;68833;53.160;17.920;2023-08-30T08:40:10;99707.48;;;17.60;81.72
79366;BME280;68833;53.160;17.920;2023-08-30T08:42:37;99710.73;;;17.59;81.26
79366;BME280;68833;53.160;17.920;2023-08-30T08:45:04;99719.10;;;17.59;81.16
79366;BME280;68833;53.160;17.920;2023-08-30T08:47:32;99725.45;;;17.59;81.51
79366;BME280;68833;53.160;17.920;2023-08-30T08:49:59;99723.56;;;17.61;81.44
79366;BME280;68833;53.160;17.920;2023-08-30T08:52:30;99724.38;;;17.63;81.25
79366;BME280;68833;53.160;17.920;2023-08-30T08:54:57;99726.73;;;17.62;80.89
79366;BME280;68833;53.160;17.920;2023-08-30T08:57:28;99727.85;;;17.61;81.27
79366;BME280;68833;53.160;17.920;2023-08-30T08:59:58;99730.56;;;17.63;81.27
79366;BME280;68833;53.160;17.920;2023-08-30T09:02:25;99736.29;;;17.66;81.19
79366;BME280;68833;53.160;17.920;2023-08-30T09:04:52;99735.62;;;17.68;81.00
79366;BME280;68833;53.160;17.920;2023-08-30T09:07:20;99730.95;;;17.69;80.93
79366;BME280;68833;53.160;17.920;2023-08-30T09:09:48;99725.77;;;17.70;80.80
79366;BME280;68833;53.160;17.920;2023-08-30T09:12:15;99724.61;;;17.68;80.72
79366;BME280;68833;53.160;17.920;2023-08-30T09:14:52;99729.54;;;17.69;80.88
79366;BME280;68833;53.160;17.920;2023-08-30T09:17:20;99724.55;;;17.73;80.92
79366;BME280;68833;53.160;17.920;2023-08-30T09:19:48;99718.95;;;17.75;80.81
79366;BME280;68833;53.160;17.920;2023-08-30T09:22:15;99722.55;;;17.77;80.66
79366;BME280;68833;53.160;17.920;2023-08-30T09:24:41;99724.23;;;17.79;80.79
79366;BME280;68833;53.160;17.920;2023-08-30T09:27:08;99721.30;;;17.80;80.91
79366;BME280;68833;53.160;17.920;2023-08-30T09:29:35;99721.55;;;17.82;80.65
79366;BME280;68833;53.160;17.920;2023-08-30T09:32:03;99723.05;;;17.84;80.73
79366;BME280;68833;53.160;17.920;2023-08-30T09:34:30;99724.27;;;17.84;80.55
79366;BME280;68833;53.160;17.920;2023-08-30T09:36:58;99727.27;;;17.82;80.53
79366;BME280;68833;53.160;17.920;2023-08-30T09:39:27;99730.83;;;17.82;80.62
79366;BME280;68833;53.160;17.920;2023-08-30T09:41:54;99731.17;;;17.82;80.94
79366;BME280;68833;53.160;17.920;2023-08-30T09:44:22;99734.95;;;17.81;80.63
79366;BME280;68833;53.160;17.920;2023-08-30T09:46:52;99735.61;;;17.82;80.53
79366;BME280;68833;53.160;17.920;2023-08-30T09:49:22;99738.16;;;17.84;80.57
79366;BME280;68833;53.160;17.920;2023-08-30T09:51:50;99738.17;;;17.87;80.50
79366;BME280;68833;53.160;17.920;2023-08-30T09:54:20;99738.90;;;17.87;80.31
79366;BME280;68833;53.160;17.920;2023-08-30T09:56:47;99737.00;;;17.86;80.31
79366;BME280;68833;53.160;17.920;2023-08-30T09:59:14;99735.47;;;17.84;80.37
79366;BME280;68833;53.160;17.920;2023-08-30T10:03:57;99730.20;;;17.90;80.35
79366;BME280;68833;53.160;17.920;2023-08-30T10:06:24;99730.38;;;17.90;80.16
79366;BME280;68833;53.160;17.920;2023-08-30T10:08:52;99726.36;;;17.89;80.10
79366;BME280;68833;53.160;17.920;2023-08-30T10:11:19;99727.88;;;17.87;80.14
79366;BME280;68833;53.160;17.920;2023-08-30T10:13:47;99730.04;;;17.86;80.17
79366;BME280;68833;53.160;17.920;2023-08-30T10:16:19;99732.16;;;17.86;80.33
79366;BME280;68833;53.160;17.920;2023-08-30T10:18:51;99730.85;;;17.88;80.12
79366;BME280;68833;53.160;17.920;2023-08-30T10:21:19;99735.05;;;17.86;80.22
79366;BME280;68833;53.160;17.920;2023-08-30T10:23:48;99738.41;;;17.86;80.22
79366;BME280;68833;53.160;17.920;2023-08-30T10:26:17;99737.17;;;17.86;80.45
79366;BME280;68833;53.160;17.920;2023-08-30T10:28:44;99736.44;;;17.86;80.38
79366;BME280;68833;53.160;17.920;2023-08-30T10:31:13;99736.50;;;17.88;80.31
79366;BME280;68833;53.160;17.920;2023-08-30T10:33:49;99736.08;;;17.90;80.43
79366;BME280;68833;53.160;17.920;2023-08-30T10:38:52;99729.95;;;17.92;80.40
79366;BME280;68833;53.160;17.920;2023-08-30T10:41:24;99731.92;;;17.91;80.34
79366;BME280;68833;53.160;17.920;2023-08-30T10:43:52;99732.45;;;17.91;80.29
79366;BME280;68833;53.160;17.920;2023-08-30T10:46:38;99730.80;;;17.92;80.31
79366;BME280;68833;53.160;17.920;2023-08-30T10:49:10;99726.96;;;17.94;80.65
79366;BME280;68833;53.160;17.920;2023-08-30T10:51:38;99728.98;;;17.93;80.45
79366;BME280;68833;53.160;17.920;2023-08-30T10:54:15;99729.35;;;17.93;80.66
79366;BME280;68833;53.160;17.920;2023-08-30T10:56:54;99724.52;;;17.93;80.44
79366;BME280;68833;53.160;17.920;2023-08-30T10:59:23;99725.38;;;17.94;80.30
79366;BME280;68833;53.160;17.920;2023-08-30T11:01:50;99721.56;;;17.96;80.43
79366;BME280;68833;53.160;17.920;2023-08-30T11:04:20;99720.39;;;17.97;80.55
79366;BME280;68833;53.160;17.920;2023-08-30T11:06:50;99719.84;;;18.01;80.43
79366;BME280;68833;53.160;17.920;2023-08-30T11:09:20;99717.39;;;18.00;80.59
79366;BME280;68833;53.160;17.920;2023-08-30T11:11:48;99716.77;;;17.98;80.48
79366;BME280;68833;53.160;17.920;2023-08-30T11:14:16;99723.83;;;17.97;80.52
79366;BME280;68833;53.160;17.920;2023-08-30T11:16:42;99727.77;;;17.96;80.45
79366;BME280;68833;53.160;17.920;2023-08-30T11:19:09;99730.31;;;17.95;80.67
79366;BME280;68833;53.160;17.920;2023-08-30T11:21:39;99729.55;;;17.96;80.39
79366;BME280;68833;53.160;17.920;2023-08-30T11:24:06;99732.82;;;17.98;80.59
79366;BME280;68833;53.160;17.920;2023-08-30T11:26:33;99723.04;;;17.98;80.80
79366;BME280;68833;53.160;17.920;2023-08-30T11:29:07;99726.02;;;17.98;80.78
79366;BME280;68833;53.160;17.920;2023-08-30T11:31:34;99722.35;;;18.01;80.80
79366;BME280;68833;53.160;17.920;2023-08-30T11:34:01;99719.05;;;18.02;80.64
79366;BME280;68833;53.160;17.920;2023-08-30T11:36:29;99723.27;;;18.03;80.73
79366;BME280;68833;53.160;17.920;2023-08-30T11:38:56;99728.23;;;18.03;80.57
79366;BME280;68833;53.160;17.920;2023-08-30T11:41:24;99727.87;;;18.04;80.56
79366;BME280;68833;53.160;17.920;2023-08-30T11:43:52;99725.73;;;18.04;80.49
79366;BME280;68833;53.160;17.920;2023-08-30T11:46:19;99723.40;;;18.05;80.89
79366;BME280;68833;53.160;17.920;2023-08-30T11:48:47;99721.86;;;18.06;80.75
79366;BME280;68833;53.160;17.920;2023-08-30T11:51:14;99723.39;;;18.08;80.92
79366;BME280;68833;53.160;17.920;2023-08-30T11:53:41;99725.52;;;18.08;80.53
79366;BME280;68833;53.160;17.920;2023-08-30T11:56:08;99720.98;;;18.06;80.65
79366;BME280;68833;53.160;17.920;2023-08-30T11:58:35;99720.83;;;18.09;80.91
79366;BME280;68833;53.160;17.920;2023-08-30T12:01:03;99722.66;;;18.11;80.75
79366;BME280;68833;53.160;17.920;2023-08-30T12:03:30;99724.77;;;18.12;80.68
79366;BME280;68833;53.160;17.920;2023-08-30T12:05:58;99728.77;;;18.13;80.73
79366;BME280;68833;53.160;17.920;2023-08-30T12:08:29;99728.59;;;18.13;80.84
79366;BME280;68833;53.160;17.920;2023-08-30T12:10:57;99725.77;;;18.13;80.76
79366;BME280;68833;53.160;17.920;2023-08-30T12:13:27;99724.30;;;18.14;80.70
79366;BME280;68833;53.160;17.920;2023-08-30T12:15:55;99724.95;;;18.15;81.17
79366;BME280;68833;53.160;17.920;2023-08-30T12:18:25;99719.21;;;18.16;81.03
79366;BME280;68833;53.160;17.920;2023-08-30T12:20:54;99717.98;;;18.15;81.01
79366;BME280;68833;53.160;17.920;2023-08-30T12:23:22;99715.16;;;18.15;80.96
79366;BME280;68833;53.160;17.920;2023-08-30T12:28:41;99719.59;;;18.15;81.36
79366;BME280;68833;53.160;17.920;2023-08-30T12:31:07;99722.40;;;18.16;81.31
79366;BME280;68833;53.160;17.920;2023-08-30T12:33:34;99721.38;;;18.15;81.08
79366;BME280;68833;53.160;17.920;2023-08-30T12:36:01;99723.32;;;18.15;81.01
79366;BME280;68833;53.160;17.920;2023-08-30T12:38:27;99723.58;;;18.14;81.31
79366;BME280;68833;53.160;17.920;2023-08-30T12:40:54;99724.10;;;18.11;80.99
79366;BME280;68833;53.160;17.920;2023-08-30T12:43:21;99725.12;;;18.09;80.95
79366;BME280;68833;53.160;17.920;2023-08-30T12:45:48;99724.16;;;18.07;81.08
79366;BME280;68833;53.160;17.920;2023-08-30T12:48:16;99731.69;;;18.06;80.93
79366;BME280;68833;53.160;17.920;2023-08-30T12:50:45;99730.00;;;18.04;80.89
79366;BME280;68833;53.160;17.920;2023-08-30T12:53:12;99730.56;;;18.03;81.05
79366;BME280;68833;53.160;17.920;2023-08-30T12:55:38;99737.97;;;18.01;80.91
79366;BME280;68833;53.160;17.920;2023-08-30T12:58:07;99735.79;;;17.99;80.99
79366;BME280;68833;53.160;17.920;2023-08-30T13:00:34;99736.70;;;17.98;80.84
79366;BME280;68833;53.160;17.920;2023-08-30T13:03:01;99734.45;;;17.97;81.09
79366;BME280;68833;53.160;17.920;2023-08-30T13:05:29;99734.85;;;17.96;80.95
79366;BME280;68833;53.160;17.920;2023-08-30T13:07:56;99731.08;;;17.94;81.22
79366;BME280;68833;53.160;17.920;2023-08-30T13:10:23;99731.19;;;17.92;80.95
79366;BME280;68833;53.160;17.920;2023-08-30T13:12:49;99732.61;;;17.92;81.10
79366;BME280;68833;53.160;17.920;2023-08-30T13:15:15;99732.18;;;17.93;81.16
79366;BME280;68833;53.160;17.920;2023-08-30T13:17:41;99732.85;;;17.94;80.69
79366;BME280;68833;53.160;17.920;2023-08-30T13:20:08;99729.61;;;17.95;80.98
79366;BME280;68833;53.160;17.920;2023-08-30T13:22:35;99730.29;;;17.95;81.26
79366;BME280;68833;53.160;17.920;2023-08-30T13:25:01;99729.55;;;17.96;81.34
79366;BME280;68833;53.160;17.920;2023-08-30T13:27:30;99728.88;;;17.95;81.24
79366;BME280;68833;53.160;17.920;2023-08-30T13:29:56;99725.48;;;17.95;81.04
79366;BME280;68833;53.160;17.920;2023-08-30T13:32:22;99730.11;;;17.95;81.04
79366;BME280;68833;53.160;17.920;2023-08-30T13:34:50;99727.11;;;17.95;80.95